Time;durP1;ratioP1;P1;durP2;ratioP2;P2;SDS_P1;SDS_P2;PMS_P1;PMS_P2;Temp;Humidity;BMP_temperature;BMP_pressure;BME280_temperature;BME280_humidity;BME280_pressure;Samples;Min_cycle;Max_cycle;Signal;HPM_P1;HPM_P2
2023/04/11 00:00:28;;;;;;;0.30;0.20;;;;;;;12.16;100.00;99794.97;5027080;28;20448;-52
2023/04/11 00:02:58;;;;;;;0.50;0.30;;;;;;;11.95;100.00;99795.91;5048429;28;20495;-52
2023/04/11 00:05:27;;;;;;;0.30;0.20;;;;;;;12.08;99.79;99786.47;5046760;28;20531;-52
2023/04/11 00:07:53;;;;;;;0.30;0.20;;;;;;;12.18;99.70;99770.94;5041834;28;20446;-52
2023/04/11 00:10:19;;;;;;;3.47;0.50;;;;;;;11.93;98.63;99780.94;5043478;28;20455;-52
2023/04/11 00:12:46;;;;;;;14.53;0.50;;;;;;;11.87;99.07;99771.38;5048530;28;20468;-51
2023/04/11 00:15:14;;;;;;;0.43;0.27;;;;;;;11.79;98.21;99762.88;5046541;28;20453;-52
2023/04/11 00:17:44;;;;;;;0.40;0.20;;;;;;;11.81;98.31;99758.34;5041887;28;20474;-52
2023/04/11 00:20:11;;;;;;;0.50;0.30;;;;;;;11.70;99.03;99752.56;5042560;28;20878;-52
2023/04/11 00:22:38;;;;;;;0.30;0.20;;;;;;;11.72;99.19;99772.00;5048257;28;20578;-51
2023/04/11 00:25:06;;;;;;;0.40;0.27;;;;;;;11.70;98.47;99768.53;5047932;28;20501;-52
2023/04/11 00:27:32;;;;;;;0.53;0.30;;;;;;;11.86;98.27;99788.28;5041502;28;20504;-52
2023/04/11 00:29:59;;;;;;;0.40;0.30;;;;;;;11.80;97.39;99801.88;5041453;28;20456;-52
2023/04/11 00:32:26;;;;;;;0.47;0.40;;;;;;;11.77;97.93;99791.31;5047910;28;21056;-53
2023/04/11 00:34:54;;;;;;;0.33;0.20;;;;;;;11.79;97.39;99779.72;5043897;28;20484;-52
2023/04/11 00:37:21;;;;;;;1.53;0.40;;;;;;;12.03;97.33;99777.78;5047559;28;20475;-52
2023/04/11 00:39:51;;;;;;;0.30;0.20;;;;;;;12.24;96.50;99781.34;5047874;28;20446;-52
2023/04/11 00:42:18;;;;;;;0.40;0.30;;;;;;;12.09;97.49;99774.88;5042771;28;20492;-52
2023/04/11 00:44:45;;;;;;;0.40;0.20;;;;;;;12.02;96.66;99802.69;5041307;28;20452;-51
2023/04/11 00:47:12;;;;;;;0.50;0.30;;;;;;;11.93;97.26;99821.75;5046120;28;20470;-52
2023/04/11 00:49:39;;;;;;;0.93;0.60;;;;;;;11.94;98.35;99830.59;5047732;28;20534;-52
2023/04/11 00:52:06;;;;;;;1.13;0.50;;;;;;;11.94;99.11;99825.28;5043241;28;20447;-52
2023/04/11 00:54:33;;;;;;;0.50;0.40;;;;;;;11.90;100.00;99839.63;5040765;28;20476;-51
2023/04/11 00:57:03;;;;;;;1.47;0.57;;;;;;;11.88;100.00;99823.72;5045404;28;20452;-52
2023/04/11 00:59:31;;;;;;;1.43;0.50;;;;;;;11.90;98.93;99831.63;5047663;28;20460;-52
2023/04/11 01:01:58;;;;;;;0.40;0.30;;;;;;;12.00;97.54;99841.84;5044388;28;20490;-52
2023/04/11 01:04:25;;;;;;;0.33;0.27;;;;;;;12.03;98.38;99830.19;5040633;28;20471;-52
2023/04/11 01:07:04;;;;;;;6.63;0.40;;;;;;;11.92;97.83;99830.63;5043778;28;20444;-52
2023/04/11 01:09:34;;;;;;;0.30;0.20;;;;;;;11.90;97.68;99837.84;5047506;28;20451;-52
2023/04/11 01:12:02;;;;;;;0.40;0.30;;;;;;;11.79;99.33;99845.41;5046606;28;20443;-52
2023/04/11 01:14:29;;;;;;;0.40;0.40;;;;;;;11.79;100.00;99842.75;5040569;28;20569;-52
2023/04/11 01:16:56;;;;;;;0.30;0.20;;;;;;;11.67;100.00;99849.41;5041184;28;20960;-52
2023/04/11 01:19:25;;;;;;;0.40;0.30;;;;;;;11.62;100.00;99840.72;5047294;28;20451;-52
2023/04/11 01:21:54;;;;;;;1.03;0.40;;;;;;;11.70;100.00;99837.75;5046864;28;20482;-51
2023/04/11 01:24:21;;;;;;;0.40;0.30;;;;;;;11.66;100.00;99836.16;5041312;28;20470;-52
2023/04/11 01:26:47;;;;;;;0.47;0.30;;;;;;;11.67;100.00;99837.91;5040313;28;20969;-52
2023/04/11 01:29:14;;;;;;;0.30;0.20;;;;;;;11.70;99.95;99830.63;5046431;28;20444;-52
2023/04/11 01:31:41;;;;;;;0.93;0.30;;;;;;;11.70;100.00;99840.44;5047151;28;20489;-52
2023/04/11 01:34:11;;;;;;;0.83;0.57;;;;;;;11.71;99.71;99837.69;5040599;28;20513;-50
2023/04/11 01:36:38;;;;;;;0.30;0.20;;;;;;;11.64;100.00;99833.53;5047507;28;20920;-50
2023/04/11 01:39:05;;;;;;;0.60;0.40;;;;;;;11.59;100.00;99848.84;5024205;28;20542;-50
2023/04/11 01:41:33;;;;;;;0.43;0.30;;;;;;;11.76;100.00;99845.47;5039989;28;20542;-50
2023/04/11 01:44:01;;;;;;;0.40;0.30;;;;;;;11.51;100.00;99841.16;5045493;28;20467;-50
2023/04/11 01:46:27;;;;;;;0.50;0.43;;;;;;;11.52;100.00;99829.59;5046152;28;20534;-50
2023/04/11 01:48:55;;;;;;;0.30;0.20;;;;;;;11.54;100.00;99829.53;5041782;28;20887;-50
2023/04/11 01:51:22;;;;;;;0.63;0.50;;;;;;;11.50;100.00;99826.09;5039721;28;20498;-50
2023/04/11 01:53:48;;;;;;;1.00;0.30;;;;;;;11.51;100.00;99838.50;5044375;28;21068;-50
2023/04/11 01:56:15;;;;;;;0.30;0.20;;;;;;;11.50;100.00;99843.88;5028810;28;20450;-50
2023/04/11 01:58:42;;;;;;;2.37;0.80;;;;;;;11.63;100.00;99836.25;5042353;28;20455;-50
2023/04/11 02:01:08;;;;;;;0.40;0.20;;;;;;;11.47;100.00;99838.66;5039405;28;20985;-50
2023/04/11 02:03:35;;;;;;;0.77;0.50;;;;;;;11.41;100.00;99846.91;5044010;28;20559;-50
2023/04/11 02:06:02;;;;;;;0.47;0.30;;;;;;;11.34;100.00;99840.94;5046314;28;20508;-50
2023/04/11 02:08:29;;;;;;;6.73;1.40;;;;;;;11.51;100.00;99842.94;5042812;28;20493;-50
2023/04/11 02:10:55;;;;;;;0.30;0.20;;;;;;;11.56;100.00;99857.81;5039586;28;20496;-50
2023/04/11 02:13:22;;;;;;;1.93;0.40;;;;;;;11.29;100.00;99861.56;5043184;28;20491;-50
2023/04/11 02:15:48;;;;;;;0.43;0.43;;;;;;;11.16;100.00;99869.13;5046359;28;20513;-50
2023/04/11 02:18:15;;;;;;;0.30;0.20;;;;;;;11.43;100.00;99866.34;5042562;28;20451;-50
2023/04/11 02:20:41;;;;;;;0.40;0.30;;;;;;;11.10;100.00;99873.78;5039290;28;20454;-50
2023/04/11 02:23:07;;;;;;;0.30;0.20;;;;;;;11.23;100.00;99859.09;5042785;28;20496;-50
2023/04/11 02:25:34;;;;;;;0.30;0.30;;;;;;;11.10;100.00;99858.72;5046233;28;20452;-50
2023/04/11 02:28:00;;;;;;;0.30;0.20;;;;;;;10.96;100.00;99874.31;5042560;28;20861;-49
2023/04/11 02:30:27;;;;;;;1.40;0.70;;;;;;;11.01;100.00;99884.78;5039429;28;20443;-49
2023/04/11 02:32:53;;;;;;;0.30;0.20;;;;;;;11.16;100.00;99873.59;5041406;28;21008;-49
2023/04/11 02:35:20;;;;;;;0.40;0.30;;;;;;;11.00;100.00;99869.78;5028501;28;20837;-49
2023/04/11 02:37:46;;;;;;;1.37;0.40;;;;;;;11.12;100.00;99878.16;5043298;28;20447;-49
2023/04/11 02:40:12;;;;;;;0.37;0.30;;;;;;;11.39;100.00;99870.91;5038924;28;20476;-49
2023/04/11 02:42:41;;;;;;;0.57;0.53;;;;;;;11.14;100.00;99859.47;5026173;28;20562;-50
2023/04/11 02:45:09;;;;;;;2.73;0.30;;;;;;;10.87;100.00;99837.44;5045651;28;20454;-50
2023/04/11 02:47:35;;;;;;;0.30;0.20;;;;;;;11.06;100.00;99859.75;5043523;28;20951;-49
2023/04/11 02:50:01;;;;;;;0.40;0.30;;;;;;;10.86;100.00;99835.72;5038819;28;20455;-49
2023/04/11 02:52:28;;;;;;;0.60;0.47;;;;;;;10.76;100.00;99816.56;5041015;28;20878;-49
2023/04/11 02:54:54;;;;;;;0.67;0.37;;;;;;;10.75;100.00;99820.16;5045725;28;20448;-49
2023/04/11 02:57:21;;;;;;;0.40;0.30;;;;;;;10.98;100.00;99821.97;5042744;28;20455;-49
2023/04/11 02:59:47;;;;;;;0.50;0.43;;;;;;;11.04;100.00;99823.50;5038455;28;20450;-49
2023/04/11 03:02:13;;;;;;;0.30;0.20;;;;;;;10.94;100.00;99820.31;5040934;28;20514;-49
2023/04/11 03:04:40;;;;;;;1.23;0.37;;;;;;;10.90;100.00;99821.38;5045383;28;20472;-49
2023/04/11 03:07:06;;;;;;;0.40;0.30;;;;;;;10.88;100.00;99820.56;5043470;28;20485;-49
2023/04/11 03:09:33;;;;;;;0.40;0.30;;;;;;;10.73;100.00;99810.50;5038639;28;20450;-49
2023/04/11 03:12:00;;;;;;;12.40;0.53;;;;;;;10.48;100.00;99807.88;5037995;28;20447;-49
2023/04/11 03:14:26;;;;;;;0.30;0.20;;;;;;;10.62;100.00;99810.88;5045276;28;20529;-49
2023/04/11 03:16:53;;;;;;;0.50;0.30;;;;;;;10.54;100.00;99826.22;5044006;28;20455;-49
2023/04/11 03:19:19;;;;;;;0.40;0.40;;;;;;;10.63;100.00;99831.22;5038770;28;20457;-49
2023/04/11 03:21:46;;;;;;;6.83;0.40;;;;;;;10.71;100.00;99833.63;5040117;28;20495;-49
2023/04/11 03:24:12;;;;;;;0.83;0.50;;;;;;;10.62;100.00;99826.84;5045348;28;20603;-49
2023/04/11 03:26:39;;;;;;;0.40;0.30;;;;;;;10.57;100.00;99842.94;5043575;28;20818;-49
2023/04/11 03:29:05;;;;;;;0.40;0.20;;;;;;;10.39;100.00;99838.28;5033267;28;21019;-49
2023/04/11 03:31:32;;;;;;;1.43;0.47;;;;;;;10.45;100.00;99847.84;5044952;28;20871;-49
2023/04/11 03:33:58;;;;;;;1.17;1.07;;;;;;;10.50;100.00;99846.75;5038081;28;20532;-49
2023/04/11 03:36:28;;;;;;;0.30;0.20;;;;;;;10.57;100.00;99842.09;5047049;28;20987;-49
2023/04/11 03:38:55;;;;;;;0.30;0.20;;;;;;;10.75;100.00;99846.72;5025498;28;20455;-49
2023/04/11 03:41:22;;;;;;;0.87;0.80;;;;;;;10.63;100.00;99852.47;5038286;28;20979;-49
2023/04/11 03:43:48;;;;;;;0.50;0.30;;;;;;;10.54;100.00;99852.81;5038071;28;20605;-49
2023/04/11 03:46:14;;;;;;;4.47;0.60;;;;;;;10.59;100.00;99849.06;5038570;28;20451;-49
2023/04/11 03:48:41;;;;;;;0.30;0.20;;;;;;;10.51;100.00;99847.59;5045159;28;21034;-49
2023/04/11 03:51:07;;;;;;;1.50;0.60;;;;;;;10.52;100.00;99854.66;5044858;28;20446;-49
2023/04/11 03:53:34;;;;;;;0.73;0.50;;;;;;;10.42;100.00;99853.25;5025050;28;20847;-49
2023/04/11 03:56:00;;;;;;;0.50;0.50;;;;;;;10.48;100.00;99861.88;5038242;28;20547;-49
2023/04/11 03:58:26;;;;;;;0.70;0.30;;;;;;;10.63;100.00;99871.09;5044684;28;20936;-49
2023/04/11 04:00:53;;;;;;;0.83;0.40;;;;;;;10.42;100.00;99867.41;5045041;28;20451;-51
2023/04/11 04:03:19;;;;;;;0.40;0.30;;;;;;;10.60;100.00;99868.56;5038505;28;20494;-51
2023/04/11 04:05:46;;;;;;;0.30;0.20;;;;;;;10.78;99.46;99864.34;5037932;28;20451;-51
2023/04/11 04:08:12;;;;;;;0.70;0.67;;;;;;;10.84;100.00;99859.69;5044476;28;20459;-51
2023/04/11 04:10:39;;;;;;;2.00;0.80;;;;;;;10.54;100.00;99860.78;5045581;28;20833;-51
2023/04/11 04:13:05;;;;;;;0.40;0.40;;;;;;;10.60;100.00;99871.22;5042604;28;20470;-51
2023/04/11 04:15:32;;;;;;;0.50;0.40;;;;;;;10.40;100.00;99871.88;5041854;28;20463;-51
2023/04/11 04:17:59;;;;;;;0.37;0.20;;;;;;;10.31;100.00;99865.13;5047625;28;20509;-51
2023/04/11 04:20:25;;;;;;;0.60;0.60;;;;;;;10.24;100.00;99876.00;5048429;28;20446;-51
2023/04/11 04:22:52;;;;;;;0.30;0.30;;;;;;;10.18;100.00;99873.53;5042455;28;20522;-51
2023/04/11 04:25:19;;;;;;;1.43;0.53;;;;;;;10.42;100.00;99875.38;5041423;28;20443;-51
2023/04/11 04:27:46;;;;;;;2.20;0.60;;;;;;;10.49;100.00;99873.38;5046962;28;20880;-51
2023/04/11 04:30:17;;;;;;;1.43;0.50;;;;;;;10.30;100.00;99873.16;5036963;28;20448;-51
2023/04/11 04:32:44;;;;;;;0.30;0.20;;;;;;;10.22;100.00;99883.16;5045209;28;20510;-51
2023/04/11 04:35:15;;;;;;;0.30;0.20;;;;;;;10.16;100.00;99892.16;5046752;28;21026;-51
2023/04/11 04:37:45;;;;;;;1.43;0.63;;;;;;;10.23;100.00;99893.72;5044145;28;20941;-51
2023/04/11 04:40:12;;;;;;;0.30;0.20;;;;;;;10.23;100.00;99896.38;5047981;28;20455;-51
2023/04/11 04:42:42;;;;;;;0.60;0.60;;;;;;;10.23;100.00;99896.38;5045680;28;20614;-51
2023/04/11 04:45:10;;;;;;;1.27;0.60;;;;;;;10.10;100.00;99903.84;5041330;28;20478;-52
2023/04/11 04:47:37;;;;;;;0.70;0.50;;;;;;;10.05;100.00;99899.63;5042482;28;20451;-51
2023/04/11 04:50:04;;;;;;;0.73;0.30;;;;;;;10.01;100.00;99908.63;5047933;28;20475;-51
2023/04/11 04:52:31;;;;;;;0.30;0.20;;;;;;;9.95;100.00;99900.81;5046338;28;20813;-51
2023/04/11 04:54:58;;;;;;;0.30;0.20;;;;;;;9.83;100.00;99902.09;5040680;28;20446;-51
2023/04/11 04:57:25;;;;;;;0.50;0.40;;;;;;;9.86;100.00;99901.97;5041298;28;20548;-51
2023/04/11 04:59:53;;;;;;;1.10;1.10;;;;;;;9.75;100.00;99907.66;5029327;28;20938;-52
2023/04/11 05:02:20;;;;;;;2.30;0.77;;;;;;;9.73;100.00;99917.44;5047037;28;20564;-51
2023/04/11 05:04:50;;;;;;;0.60;0.50;;;;;;;9.70;100.00;99921.97;5027416;28;20474;-51
2023/04/11 05:07:17;;;;;;;4.03;0.40;;;;;;;9.74;100.00;99923.63;5040238;28;20474;-51
2023/04/11 05:09:43;;;;;;;0.30;0.20;;;;;;;9.69;100.00;99928.19;5046220;28;20944;-51
2023/04/11 05:12:10;;;;;;;0.30;0.20;;;;;;;9.63;100.00;99921.31;5046889;28;20472;-52
2023/04/11 05:14:36;;;;;;;0.40;0.20;;;;;;;9.71;100.00;99923.69;5023480;28;20481;-52
2023/04/11 05:17:03;;;;;;;1.33;0.83;;;;;;;9.76;100.00;99920.00;5040222;28;20448;-52
2023/04/11 05:19:31;;;;;;;0.50;0.43;;;;;;;9.71;100.00;99927.22;5045539;28;20452;-51
2023/04/11 05:21:57;;;;;;;7.00;0.40;;;;;;;9.58;100.00;99927.63;5046144;28;20478;-51
2023/04/11 05:24:24;;;;;;;0.40;0.30;;;;;;;9.75;100.00;99941.28;5041582;28;20494;-52
2023/04/11 05:26:50;;;;;;;9.40;0.40;;;;;;;9.72;100.00;99942.22;5040237;28;20452;-51
2023/04/11 05:29:17;;;;;;;0.90;0.63;;;;;;;9.81;100.00;99941.09;5045177;28;20831;-51
2023/04/11 05:31:43;;;;;;;4.23;0.53;;;;;;;9.81;100.00;99943.75;5046592;28;20452;-51
2023/04/11 05:34:10;;;;;;;0.97;0.70;;;;;;;9.90;100.00;99943.47;5041071;28;20486;-52
2023/04/11 05:36:36;;;;;;;1.07;0.40;;;;;;;9.76;100.00;99951.84;5047601;28;20802;-51
2023/04/11 05:39:03;;;;;;;0.30;0.20;;;;;;;9.88;100.00;99947.97;5040795;28;20451;-51
2023/04/11 05:41:29;;;;;;;0.70;0.70;;;;;;;10.28;100.00;99949.34;5039572;28;20456;-51
2023/04/11 05:43:55;;;;;;;0.40;0.30;;;;;;;10.22;100.00;99963.69;5045428;28;20499;-51
2023/04/11 05:46:23;;;;;;;0.93;0.83;;;;;;;9.99;100.00;99960.88;5046252;28;20510;-49
2023/04/11 05:48:49;;;;;;;0.30;0.20;;;;;;;9.92;100.00;99962.88;5041005;28;20872;-56
2023/04/11 05:51:16;;;;;;;0.40;0.30;;;;;;;9.87;100.00;99982.50;5039706;28;20467;-56
2023/04/11 05:53:42;;;;;;;0.70;0.50;;;;;;;10.18;100.00;99970.00;5044688;28;20464;-56
2023/04/11 05:56:11;;;;;;;0.93;0.87;;;;;;;9.94;100.00;99984.06;5046193;28;20451;-55
2023/04/11 05:58:38;;;;;;;2.73;0.70;;;;;;;10.01;99.21;99975.00;5041204;28;20455;-55
2023/04/11 06:01:06;;;;;;;0.30;0.20;;;;;;;10.25;99.52;99981.31;5038989;28;20455;-55
2023/04/11 06:03:32;;;;;;;0.50;0.50;;;;;;;10.42;98.36;99984.31;5043813;28;20495;-56
2023/04/11 06:05:59;;;;;;;0.40;0.30;;;;;;;10.48;99.05;99981.44;5045916;28;20459;-55
2023/04/11 06:08:26;;;;;;;0.40;0.30;;;;;;;10.49;98.10;99980.53;5041354;28;20447;-55
2023/04/11 06:10:52;;;;;;;9.00;0.30;;;;;;;10.86;97.65;99977.50;5039015;28;20483;-55
2023/04/11 06:13:19;;;;;;;0.60;0.40;;;;;;;10.75;97.79;99976.13;5043705;28;20558;-55
2023/04/11 06:15:46;;;;;;;0.30;0.20;;;;;;;10.91;97.43;99970.22;5045562;28;20443;-55
2023/04/11 06:18:12;;;;;;;0.97;0.47;;;;;;;10.88;96.15;99969.47;5041799;28;20817;-55
2023/04/11 06:20:39;;;;;;;0.60;0.57;;;;;;;11.08;95.40;99974.06;5021558;28;20458;-55
2023/04/11 06:23:06;;;;;;;5.73;0.60;;;;;;;11.06;94.58;99970.59;5042740;28;21012;-55
2023/04/11 06:25:32;;;;;;;0.50;0.30;;;;;;;10.93;94.63;99983.44;5045433;28;20452;-55
2023/04/11 06:27:58;;;;;;;0.70;0.40;;;;;;;10.88;95.21;99977.44;5041620;28;20458;-55
2023/04/11 06:30:25;;;;;;;2.20;0.70;;;;;;;11.18;93.51;99980.78;5038721;28;20450;-55
2023/04/11 06:32:51;;;;;;;3.03;0.43;;;;;;;11.02;93.90;99984.94;5042513;28;20471;-54
2023/04/11 06:35:19;;;;;;;7.93;1.47;;;;;;;11.11;93.13;99989.94;5045160;28;20455;-55
2023/04/11 06:37:45;;;;;;;4.30;0.60;;;;;;;11.21;91.33;99992.19;5041208;28;20467;-55
2023/04/11 06:40:12;;;;;;;0.93;0.93;;;;;;;11.35;92.18;99996.16;5045444;28;20481;-54
2023/04/11 06:42:38;;;;;;;1.53;0.80;;;;;;;11.50;91.81;99985.78;5042838;28;20447;-54
2023/04/11 06:45:05;;;;;;;1.73;0.50;;;;;;;11.45;90.70;100000.22;5038462;28;20912;-54
2023/04/11 06:47:32;;;;;;;0.70;0.60;;;;;;;11.50;90.29;100007.09;5040765;28;20483;-54
2023/04/11 06:49:58;;;;;;;5.07;0.80;;;;;;;11.84;90.17;100016.53;5045396;28;20448;-55
2023/04/11 06:52:25;;;;;;;0.53;0.43;;;;;;;11.80;88.95;100009.59;5043314;28;20454;-55
2023/04/11 06:54:53;;;;;;;13.93;1.90;;;;;;;11.82;88.83;100018.38;5038141;28;20831;-55
2023/04/11 06:57:20;;;;;;;4.00;0.80;;;;;;;11.77;88.90;100022.97;5039777;28;20781;-55
2023/04/11 06:59:46;;;;;;;2.30;0.60;;;;;;;11.94;87.24;100033.03;5044932;28;20952;-55
2023/04/11 07:02:13;;;;;;;0.80;0.70;;;;;;;11.64;86.82;100030.53;5044003;28;20820;-51
2023/04/11 07:04:40;;;;;;;4.13;0.83;;;;;;;11.49;87.07;100028.44;5038184;28;20652;-51
2023/04/11 07:07:07;;;;;;;0.50;0.40;;;;;;;11.78;86.55;100022.91;5039147;28;20459;-52
2023/04/11 07:09:33;;;;;;;18.90;1.07;;;;;;;11.71;86.50;100031.19;5045078;28;20451;-51
2023/04/11 07:12:00;;;;;;;5.03;0.37;;;;;;;12.01;87.13;100029.19;5044139;28;20461;-51
2023/04/11 07:14:27;;;;;;;0.87;0.30;;;;;;;11.95;85.89;100035.63;5037912;28;20462;-51
2023/04/11 07:16:53;;;;;;;5.00;1.40;;;;;;;11.71;86.19;100032.06;5021826;28;20501;-51
2023/04/11 07:19:20;;;;;;;0.90;0.63;;;;;;;11.67;85.90;100032.25;5044959;28;20452;-52
2023/04/11 07:21:47;;;;;;;0.60;0.37;;;;;;;11.80;86.00;100033.56;5044633;28;20493;-52
2023/04/11 07:24:17;;;;;;;8.50;1.53;;;;;;;12.10;85.09;100026.19;5038093;28;20573;-52
2023/04/11 07:26:45;;;;;;;2.00;0.73;;;;;;;11.91;85.55;100034.00;5038372;28;20448;-52
2023/04/11 07:29:11;;;;;;;1.13;0.40;;;;;;;12.05;86.15;100028.13;5031428;28;20440;-52
2023/04/11 07:31:40;;;;;;;0.70;0.70;;;;;;;12.14;85.01;100035.78;5045027;28;20542;-51
2023/04/11 07:34:06;;;;;;;39.47;0.70;;;;;;;12.18;83.98;100037.38;5038738;28;20995;-51
2023/04/11 07:36:33;;;;;;;1.33;1.23;;;;;;;12.08;84.47;100041.38;5046458;28;20509;-51
2023/04/11 07:39:00;;;;;;;8.43;1.80;;;;;;;12.26;82.62;100039.75;5039284;28;20478;-51
2023/04/11 07:41:27;;;;;;;0.60;0.40;;;;;;;11.81;81.86;100041.50;5020285;28;20444;-52
2023/04/11 07:43:53;;;;;;;5.47;1.33;;;;;;;12.05;81.95;100046.78;5044658;28;20871;-49
2023/04/11 07:46:20;;;;;;;0.73;0.67;;;;;;;12.02;82.18;100046.91;5048614;28;20447;-50
2023/04/11 07:48:47;;;;;;;16.53;0.70;;;;;;;12.04;80.26;100045.91;5043587;28;20451;-50
2023/04/11 07:51:13;;;;;;;2.17;0.60;;;;;;;12.08;79.40;100054.69;5041681;28;20451;-49
2023/04/11 07:53:39;;;;;;;33.70;1.07;;;;;;;12.11;80.35;100041.25;5046854;28;20467;-50
2023/04/11 07:56:06;;;;;;;14.00;0.80;;;;;;;12.27;80.83;100061.03;5048854;28;20457;-50
2023/04/11 07:58:33;;;;;;;0.43;0.43;;;;;;;11.97;78.47;100049.75;5044094;28;20451;-50
2023/04/11 08:01:01;;;;;;;3.50;0.97;;;;;;;11.84;79.25;100052.00;5041503;28;20452;-50
2023/04/11 08:03:27;;;;;;;1.90;0.83;;;;;;;11.93;77.59;100042.81;5046446;28;20495;-50
2023/04/11 08:05:54;;;;;;;3.43;0.53;;;;;;;12.16;77.64;100053.44;5048361;28;20508;-50
2023/04/11 08:08:21;;;;;;;1.40;0.40;;;;;;;12.23;74.89;100050.56;5025524;28;20522;-50
2023/04/11 08:10:47;;;;;;;16.70;0.90;;;;;;;12.22;76.03;100032.84;5041399;28;20451;-50
2023/04/11 08:13:17;;;;;;;0.37;0.23;;;;;;;12.27;75.72;100037.03;5046380;28;20463;-50
2023/04/11 08:15:43;;;;;;;11.53;1.80;;;;;;;12.65;74.96;100045.28;5048234;28;20453;-49
2023/04/11 08:18:10;;;;;;;3.03;1.60;;;;;;;12.68;74.39;100043.38;5043589;28;20451;-49
2023/04/11 08:20:39;;;;;;;7.47;0.50;;;;;;;12.86;72.50;100043.53;5040728;28;20509;-50
2023/04/11 08:23:07;;;;;;;3.10;0.40;;;;;;;12.54;71.24;100050.19;5045026;28;20479;-50
2023/04/11 08:25:35;;;;;;;1.67;1.27;;;;;;;12.60;70.44;100045.47;5048000;28;20466;-49
2023/04/11 08:28:01;;;;;;;1.77;1.03;;;;;;;12.94;71.68;100052.09;5044540;28;20817;-50
2023/04/11 08:30:28;;;;;;;5.50;0.83;;;;;;;12.92;70.85;100061.97;5041240;28;20446;-49
2023/04/11 08:32:54;;;;;;;1.20;0.67;;;;;;;13.17;69.39;100067.13;5043738;28;20487;-50
2023/04/11 08:35:21;;;;;;;1.67;1.00;;;;;;;13.17;69.89;100062.66;5047338;28;20569;-50
2023/04/11 08:37:48;;;;;;;15.30;1.30;;;;;;;13.19;68.87;100063.50;5043517;28;20469;-50
2023/04/11 08:40:15;;;;;;;1.60;0.50;;;;;;;13.45;68.37;100059.69;5047859;28;20543;-50
2023/04/11 08:42:41;;;;;;;0.63;0.57;;;;;;;13.17;66.74;100068.00;5045322;28;20902;-50
2023/04/11 08:45:09;;;;;;;4.57;0.50;;;;;;;13.48;68.13;100067.56;5040831;28;21027;-50
2023/04/11 08:47:36;;;;;;;1.93;1.30;;;;;;;14.01;65.04;100064.28;5042538;28;20452;-49
2023/04/11 08:50:06;;;;;;;0.60;0.47;;;;;;;13.63;65.69;100071.34;5047389;28;20455;-49
2023/04/11 08:52:33;;;;;;;0.70;0.50;;;;;;;13.66;66.14;100071.22;5047042;28;20446;-52
2023/04/11 08:55:00;;;;;;;0.90;0.50;;;;;;;13.97;65.83;100068.00;5040310;28;20970;-53
2023/04/11 08:57:30;;;;;;;6.03;0.63;;;;;;;13.74;66.30;100071.75;5041184;28;20474;-52
2023/04/11 09:00:08;;;;;;;3.13;0.83;;;;;;;13.67;66.01;100072.94;5040553;28;20817;-53
2023/04/11 09:02:52;;;;;;;6.70;0.30;;;;;;;13.94;65.87;100082.38;5040659;28;20455;-53
2023/04/11 09:05:33;;;;;;;1.80;0.33;;;;;;;14.31;64.79;100080.69;5043674;28;20518;-53
2023/04/11 09:08:36;;;;;;;0.90;0.60;;;;;;;14.52;63.82;100082.34;5046963;28;20482;-52
2023/04/11 09:11:03;;;;;;;9.60;1.13;;;;;;;14.15;63.22;100088.56;5017390;28;20534;-52
2023/04/11 09:13:29;;;;;;;4.63;0.40;;;;;;;14.06;64.45;100090.78;5042251;28;20467;-53
2023/04/11 09:16:22;;;;;;;0.80;0.40;;;;;;;14.08;63.31;100089.75;5046793;28;20444;-52
2023/04/11 09:18:49;;;;;;;0.40;0.20;;;;;;;13.88;63.64;100098.69;5043411;28;21113;-52
2023/04/11 09:21:15;;;;;;;1.97;1.57;;;;;;;13.97;62.82;100104.56;5042298;28;20450;-53
2023/04/11 09:23:42;;;;;;;0.67;0.50;;;;;;;13.71;63.27;100101.28;5039862;28;20495;-52
2023/04/11 09:26:11;;;;;;;0.47;0.43;;;;;;;13.72;61.53;100092.31;5044813;28;20487;-52
2023/04/11 09:28:43;;;;;;;2.83;0.40;;;;;;;13.77;60.52;100090.28;5046906;28;20549;-53
2023/04/11 09:31:13;;;;;;;1.43;0.93;;;;;;;13.63;59.70;100092.72;5043496;28;20447;-53
2023/04/11 09:33:52;;;;;;;5.27;0.67;;;;;;;13.99;60.76;100089.34;5039701;28;20470;-52
2023/04/11 09:36:23;;;;;;;2.60;0.70;;;;;;;14.35;60.22;100095.63;5031291;28;20454;-53
2023/04/11 09:38:52;;;;;;;0.63;0.40;;;;;;;14.54;59.69;100097.47;5022032;28;20952;-52
2023/04/11 09:41:33;;;;;;;0.87;0.87;;;;;;;14.94;59.38;100104.41;5039946;28;21006;-52
2023/04/11 09:44:00;;;;;;;1.83;0.77;;;;;;;15.02;58.94;100094.19;5030015;28;20501;-52
2023/04/11 09:46:27;;;;;;;1.53;1.30;;;;;;;14.90;56.94;100093.00;5039808;28;20521;-52
2023/04/11 09:48:54;;;;;;;0.83;0.40;;;;;;;15.34;56.84;100088.06;5044242;28;20543;-52
2023/04/11 09:51:21;;;;;;;0.70;0.40;;;;;;;15.46;58.32;100094.59;5046517;28;20529;-52
2023/04/11 09:53:51;;;;;;;0.70;0.43;;;;;;;15.84;57.28;100092.63;5042462;28;20467;-53
2023/04/11 09:56:18;;;;;;;0.60;0.37;;;;;;;15.90;56.08;100099.50;5039492;28;20511;-54
2023/04/11 09:58:46;;;;;;;2.73;0.60;;;;;;;15.17;62.33;100112.16;5024768;28;20447;-52
2023/04/11 10:01:14;;;;;;;5.10;0.40;;;;;;;14.82;60.92;100109.44;5046297;28;20829;-53
2023/04/11 10:03:40;;;;;;;1.33;0.87;;;;;;;14.88;62.09;100105.59;5043782;28;20995;-52
2023/04/11 10:06:38;;;;;;;7.33;1.40;;;;;;;14.74;60.59;100106.25;5038934;28;20447;-53
2023/04/11 10:09:10;;;;;;;1.90;0.50;;;;;;;14.88;60.13;100102.03;5025229;28;20535;-52
2023/04/11 10:11:41;;;;;;;0.50;0.30;;;;;;;14.68;62.12;100095.88;5042907;28;20509;-52
2023/04/11 10:14:07;;;;;;;6.93;0.70;;;;;;;15.04;58.39;100094.97;5046144;28;20463;-52
2023/04/11 10:17:15;;;;;;;3.30;0.40;;;;;;;14.80;56.76;100097.06;5043255;28;20447;-52
2023/04/11 10:19:50;;;;;;;2.87;0.40;;;;;;;14.77;56.87;100108.78;5043016;28;20456;-53
2023/04/11 10:22:45;;;;;;;2.63;0.50;;;;;;;14.28;61.01;100134.31;5045933;28;20459;-52
2023/04/11 10:25:17;;;;;;;0.70;0.43;;;;;;;14.13;66.61;100135.88;5045788;28;20487;-52
2023/04/11 10:27:48;;;;;;;1.50;0.83;;;;;;;13.93;67.96;100142.09;5040688;28;20453;-51
2023/04/11 10:30:15;;;;;;;1.00;0.47;;;;;;;14.01;67.53;100144.44;5038258;28;20531;-52
2023/04/11 10:33:10;;;;;;;0.40;0.30;;;;;;;13.69;64.92;100140.50;5043229;28;20476;-53
2023/04/11 10:35:58;;;;;;;1.70;1.00;;;;;;;14.02;64.79;100151.53;5047093;28;20474;-52
2023/04/11 10:38:43;;;;;;;0.40;0.30;;;;;;;14.22;65.48;100143.47;5038834;28;20487;-52
2023/04/11 10:41:22;;;;;;;0.50;0.30;;;;;;;14.45;61.22;100139.75;5022514;28;20501;-52
2023/04/11 10:43:48;;;;;;;0.50;0.30;;;;;;;14.54;59.46;100130.44;5025840;28;20934;-52
2023/04/11 10:46:20;;;;;;;1.80;0.30;;;;;;;14.60;58.97;100129.28;5038913;28;20470;-53
2023/04/11 10:49:07;;;;;;;4.20;0.93;;;;;;;14.63;55.71;100130.00;5044700;28;20538;-53
2023/04/11 10:51:33;;;;;;;22.83;0.70;;;;;;;14.83;55.69;100121.00;5045343;28;20477;-52
2023/04/11 10:54:00;;;;;;;1.27;0.53;;;;;;;15.01;56.16;100129.94;5043042;28;20505;-52
2023/04/11 10:56:44;;;;;;;2.77;0.30;;;;;;;14.99;53.92;100121.13;5040723;28;20457;-52
2023/04/11 10:59:33;;;;;;;0.60;0.40;;;;;;;14.89;51.19;100119.84;5038696;28;20510;-51
2023/04/11 11:02:01;;;;;;;0.60;0.60;;;;;;;15.05;51.92;100104.75;5029089;28;20451;-52
2023/04/11 11:04:32;;;;;;;0.50;0.50;;;;;;;15.10;51.73;100106.25;5045063;28;20491;-52
2023/04/11 11:07:00;;;;;;;3.30;0.40;;;;;;;15.11;50.98;100108.00;5024913;28;20451;-52
2023/04/11 11:09:27;;;;;;;26.07;0.70;;;;;;;15.38;51.18;100107.56;5037981;28;20453;-53
2023/04/11 11:12:14;;;;;;;2.77;0.63;;;;;;;15.04;51.60;100108.38;5039043;28;20447;-52
2023/04/11 11:14:43;;;;;;;2.20;0.70;;;;;;;15.06;52.01;100111.84;5026835;28;20463;-52
2023/04/11 11:17:14;;;;;;;0.40;0.30;;;;;;;14.84;53.40;100109.38;5038315;28;20531;-52
2023/04/11 11:19:45;;;;;;;4.93;0.63;;;;;;;14.76;53.30;100112.41;5045427;28;20478;-52
2023/04/11 11:22:17;;;;;;;0.50;0.40;;;;;;;14.89;51.63;100109.13;5048951;28;20854;-52
2023/04/11 11:24:43;;;;;;;2.83;0.97;;;;;;;14.64;53.22;100104.97;5045790;28;20498;-52
2023/04/11 11:27:21;;;;;;;2.70;0.57;;;;;;;14.76;52.28;100106.19;5042348;28;20446;-53
2023/04/11 11:29:48;;;;;;;2.50;0.60;;;;;;;15.20;52.28;100109.31;5043894;28;20443;-53
2023/04/11 11:32:31;;;;;;;6.37;0.97;;;;;;;15.57;48.66;100107.44;5050037;28;20867;-52